Time;durP1;ratioP1;P1;durP2;ratioP2;P2;SDS_P1;SDS_P2;PMS_P1;PMS_P2;Temp;Humidity;BMP_temperature;BMP_pressure;BME280_temperature;BME280_humidity;BME280_pressure;Samples;Min_cycle;Max_cycle;Signal;HPM_P1;HPM_P2
2022/04/11 00:00:41;;;;;;;7.17;4.53;;;;;;;;;;5118088;28;20235;-75
2022/04/11 00:03:09;;;;;;;6.10;4.23;;;;;;;;;;5117721;28;20193;-75
2022/04/11 00:05:39;;;;;;;6.07;4.30;;;;;;;;;;5118196;28;20212;-75
2022/04/11 00:08:07;;;;;;;6.47;4.67;;;;;;;;;;5117803;28;20559;-75
2022/04/11 00:10:35;;;;;;;8.80;4.40;;;;;;;;;;5118442;28;20207;-74
2022/04/11 00:13:03;;;;;;;5.50;4.10;;;;;;;;;;5117610;28;20594;-75
2022/04/11 00:15:38;;;;;;;8.10;4.57;;;;;;;;;;5118012;28;20579;-75
2022/04/11 00:18:07;;;;;;;6.53;4.37;;;;;;;;;;5117347;28;20196;-74
2022/04/11 00:20:36;;;;;;;5.87;4.20;;;;;;;;;;5118076;28;20207;-74
2022/04/11 00:23:05;;;;;;;6.53;4.83;;;;;;;;;;5117560;28;20205;-74
2022/04/11 00:25:34;;;;;;;4.50;4.03;;;;;;;;;;5118016;28;20230;-75
2022/04/11 00:28:02;;;;;;;7.47;4.47;;;;;;;;;;5117386;28;20304;-75
2022/04/11 00:30:30;;;;;;;7.03;4.10;;;;;;;;;;5117832;28;20570;-75
2022/04/11 00:32:58;;;;;;;5.90;4.00;;;;;;;;;;5117542;28;20204;-74
2022/04/11 00:35:26;;;;;;;5.33;3.80;;;;;;;;;;5117524;28;20750;-75
2022/04/11 00:37:54;;;;;;;4.40;3.90;;;;;;;;;;5117507;28;20563;-74
2022/04/11 00:40:23;;;;;;;4.90;3.67;;;;;;;;;;5117991;28;20197;-75
2022/04/11 00:42:51;;;;;;;5.77;3.90;;;;;;;;;;5117547;28;20197;-74
2022/04/11 00:45:19;;;;;;;4.37;3.00;;;;;;;;;;5117745;28;20215;-75
2022/04/11 00:47:47;;;;;;;6.20;3.73;;;;;;;;;;5117468;28;20203;-75
2022/04/11 00:50:15;;;;;;;6.27;3.43;;;;;;;;;;5117502;28;20203;-75
2022/04/11 00:52:45;;;;;;;5.07;3.90;;;;;;;;;;5117429;28;20208;-74
2022/04/11 00:55:13;;;;;;;5.60;4.10;;;;;;;;;;5117309;28;20217;-74
2022/04/11 00:57:43;;;;;;;7.27;4.10;;;;;;;;;;5117368;28;20199;-74
2022/04/11 01:00:13;;;;;;;6.97;3.90;;;;;;;;;;5117389;28;20204;-75
2022/04/11 01:02:41;;;;;;;5.87;3.90;;;;;;;;;;5117002;28;20224;-75
2022/04/11 01:05:10;;;;;;;4.20;3.80;;;;;;;;;;5117420;28;20246;-75
2022/04/11 01:07:38;;;;;;;5.77;3.97;;;;;;;;;;5117191;28;20223;-74
2022/04/11 01:10:08;;;;;;;4.77;3.47;;;;;;;;;;5117536;28;20205;-75
2022/04/11 01:12:36;;;;;;;6.30;3.80;;;;;;;;;;5117260;28;20683;-74
2022/04/11 01:15:06;;;;;;;6.40;4.20;;;;;;;;;;5117134;28;20783;-75
2022/04/11 01:17:35;;;;;;;6.50;4.00;;;;;;;;;;5113446;28;20193;-75
2022/04/11 01:20:10;;;;;;;7.50;4.77;;;;;;;;;;5115043;28;20670;-75
2022/04/11 01:22:40;;;;;;;6.43;4.50;;;;;;;;;;5116121;28;20565;-74
2022/04/11 01:25:09;;;;;;;10.57;5.27;;;;;;;;;;5117307;28;20211;-75
2022/04/11 01:27:38;;;;;;;5.57;4.80;;;;;;;;;;5117782;28;20203;-75
2022/04/11 01:30:07;;;;;;;12.53;5.43;;;;;;;;;;5117201;28;20664;-74
2022/04/11 01:32:35;;;;;;;10.10;4.37;;;;;;;;;;5116614;28;20205;-75
2022/04/11 01:35:03;;;;;;;5.53;4.53;;;;;;;;;;5119123;28;20228;-75
2022/04/11 01:37:31;;;;;;;9.70;5.10;;;;;;;;;;5121321;28;20666;-75
2022/04/11 01:40:00;;;;;;;8.60;4.93;;;;;;;;;;5115580;28;20201;-75
2022/04/11 01:42:28;;;;;;;6.67;4.37;;;;;;;;;;5120773;28;20638;-75
2022/04/11 01:44:56;;;;;;;8.30;4.60;;;;;;;;;;5120774;28;20193;-74
2022/04/11 01:47:24;;;;;;;7.87;4.30;;;;;;;;;;5120710;28;20205;-75
2022/04/11 01:49:52;;;;;;;7.57;4.33;;;;;;;;;;5120944;28;20208;-74
2022/04/11 01:52:20;;;;;;;8.97;5.07;;;;;;;;;;5120908;28;20204;-75
2022/04/11 01:54:48;;;;;;;9.70;4.70;;;;;;;;;;5120416;28;20225;-75
2022/04/11 01:57:38;;;;;;;6.23;4.57;;;;;;;;;;5120251;28;20197;-75
2022/04/11 02:00:06;;;;;;;6.63;4.10;;;;;;;;;;5120630;28;20200;-75
2022/04/11 02:02:34;;;;;;;6.33;4.17;;;;;;;;;;5120052;28;20225;-75
2022/04/11 02:05:03;;;;;;;5.83;4.00;;;;;;;;;;5120243;28;20613;-75
2022/04/11 02:07:31;;;;;;;7.53;4.10;;;;;;;;;;5120842;28;20284;-74
2022/04/11 02:09:59;;;;;;;4.63;4.10;;;;;;;;;;5120521;28;20279;-75
2022/04/11 02:12:27;;;;;;;6.00;3.40;;;;;;;;;;5120569;28;20253;-75
2022/04/11 02:14:56;;;;;;;4.33;3.63;;;;;;;;;;5120257;28;20220;-75
2022/04/11 02:17:24;;;;;;;4.40;3.13;;;;;;;;;;5117813;28;20193;-75
2022/04/11 02:19:52;;;;;;;7.13;3.40;;;;;;;;;;5116667;28;20211;-75
2022/04/11 02:22:20;;;;;;;3.20;2.90;;;;;;;;;;5120060;28;20683;-75
2022/04/11 02:24:48;;;;;;;4.07;3.20;;;;;;;;;;5116536;28;20217;-74
2022/04/11 02:27:16;;;;;;;5.13;3.00;;;;;;;;;;5109786;28;20217;-74
2022/04/11 02:29:44;;;;;;;6.03;3.33;;;;;;;;;;5108643;28;20218;-74
2022/04/11 02:32:14;;;;;;;4.50;3.00;;;;;;;;;;5110814;28;20293;-74
2022/04/11 02:34:42;;;;;;;3.20;2.73;;;;;;;;;;5104211;28;20239;-74
2022/04/11 02:37:10;;;;;;;4.00;2.90;;;;;;;;;;5108479;28;20565;-74
2022/04/11 02:39:38;;;;;;;2.97;2.23;;;;;;;;;;5113470;28;20200;-75
2022/04/11 02:42:06;;;;;;;3.07;2.77;;;;;;;;;;5109488;28;20201;-75
2022/04/11 02:44:34;;;;;;;3.20;2.67;;;;;;;;;;5113554;28;20701;-74
2022/04/11 02:47:02;;;;;;;4.00;3.00;;;;;;;;;;5105508;28;20232;-75
2022/04/11 02:49:31;;;;;;;4.33;3.20;;;;;;;;;;5108349;28;20321;-75
2022/04/11 02:51:59;;;;;;;4.10;3.10;;;;;;;;;;5105874;28;20292;-74
2022/04/11 02:54:27;;;;;;;6.37;3.40;;;;;;;;;;5104333;28;20205;-74
2022/04/11 02:56:55;;;;;;;3.07;2.80;;;;;;;;;;5115342;28;20216;-74
2022/04/11 02:59:24;;;;;;;3.43;2.43;;;;;;;;;;5119318;28;20208;-74
2022/04/11 03:01:52;;;;;;;5.70;2.50;;;;;;;;;;5118613;27;20325;-74
2022/04/11 03:04:20;;;;;;;3.57;2.37;;;;;;;;;;5119441;28;20250;-74
2022/04/11 03:06:49;;;;;;;3.07;2.70;;;;;;;;;;5119299;28;20299;-74
2022/04/11 03:09:17;;;;;;;2.43;2.20;;;;;;;;;;5118859;28;20678;-74
2022/04/11 03:11:45;;;;;;;2.77;2.50;;;;;;;;;;5119223;28;20197;-74
2022/04/11 03:14:14;;;;;;;3.20;2.43;;;;;;;;;;5111475;28;20668;-74
2022/04/11 03:16:41;;;;;;;3.97;2.30;;;;;;;;;;5118825;28;20216;-74
2022/04/11 03:19:10;;;;;;;2.10;2.00;;;;;;;;;;5119122;28;20260;-74
2022/04/11 03:21:38;;;;;;;2.47;2.20;;;;;;;;;;5119284;28;20203;-74
2022/04/11 03:24:08;;;;;;;3.60;2.73;;;;;;;;;;5118990;28;20205;-74
2022/04/11 03:26:36;;;;;;;1.83;1.73;;;;;;;;;;5119243;28;20209;-74
2022/04/11 03:29:04;;;;;;;2.97;1.90;;;;;;;;;;5118988;28;20200;-74
2022/04/11 03:31:32;;;;;;;4.23;2.43;;;;;;;;;;5111794;28;20201;-74
2022/04/11 03:34:00;;;;;;;3.47;2.17;;;;;;;;;;5118907;28;20283;-74
2022/04/11 03:36:28;;;;;;;3.43;2.30;;;;;;;;;;5118483;28;20225;-74
2022/04/11 03:38:55;;;;;;;2.67;2.43;;;;;;;;;;5118916;27;20205;-74
2022/04/11 03:41:25;;;;;;;2.50;2.20;;;;;;;;;;5118657;28;20205;-74
2022/04/11 03:43:53;;;;;;;1.73;1.63;;;;;;;;;;5119113;28;20201;-74
2022/04/11 03:46:21;;;;;;;2.10;1.90;;;;;;;;;;5116769;28;20220;-74
2022/04/11 03:48:49;;;;;;;2.97;1.87;;;;;;;;;;5118393;28;20451;-74
2022/04/11 03:51:17;;;;;;;2.50;1.73;;;;;;;;;;5117863;28;20196;-75
2022/04/11 03:53:46;;;;;;;1.50;1.40;;;;;;;;;;5117306;28;20266;-74
2022/04/11 03:56:17;;;;;;;2.07;1.50;;;;;;;;;;5116882;28;20220;-75
2022/04/11 03:58:46;;;;;;;1.30;1.20;;;;;;;;;;5117763;28;20254;-74
2022/04/11 04:01:14;;;;;;;4.47;1.27;;;;;;;;;;5117721;28;20232;-74
2022/04/11 04:03:42;;;;;;;2.90;1.30;;;;;;;;;;5118137;28;20275;-74
2022/04/11 04:06:11;;;;;;;4.77;1.27;;;;;;;;;;5118103;28;20213;-74
2022/04/11 04:08:39;;;;;;;1.80;1.20;;;;;;;;;;5118200;28;20224;-74
2022/04/11 04:11:08;;;;;;;2.03;1.27;;;;;;;;;;5110665;27;20197;-75
2022/04/11 04:13:37;;;;;;;2.07;1.37;;;;;;;;;;5117331;28;20197;-74
2022/04/11 04:16:07;;;;;;;3.03;1.07;;;;;;;;;;5117058;28;20216;-74
2022/04/11 04:18:35;;;;;;;1.40;1.30;;;;;;;;;;5117287;28;20204;-74
2022/04/11 04:21:03;;;;;;;2.73;1.40;;;;;;;;;;5116357;28;20197;-74
2022/04/11 04:23:31;;;;;;;1.50;1.03;;;;;;;;;;5117377;28;20208;-74
2022/04/11 04:25:59;;;;;;;2.00;1.30;;;;;;;;;;5117352;28;20227;-74
2022/04/11 04:28:26;;;;;;;1.43;0.90;;;;;;;;;;5117294;28;20203;-75
2022/04/11 04:30:54;;;;;;;2.13;1.30;;;;;;;;;;5116929;28;20201;-75
2022/04/11 04:33:24;;;;;;;1.47;1.37;;;;;;;;;;5114388;28;20261;-74
2022/04/11 04:35:52;;;;;;;1.63;1.17;;;;;;;;;;5117500;28;20220;-74
2022/04/11 04:38:20;;;;;;;1.20;1.10;;;;;;;;;;5117541;28;20193;-72
2022/04/11 04:40:48;;;;;;;1.30;1.20;;;;;;;;;;5117672;28;20203;-74
2022/04/11 04:43:16;;;;;;;2.30;0.90;;;;;;;;;;5117257;28;20216;-73
2022/04/11 04:45:45;;;;;;;1.50;1.40;;;;;;;;;;5116083;28;20209;-73
2022/04/11 04:48:13;;;;;;;1.03;1.03;;;;;;;;;;5116803;28;20193;-74
2022/04/11 04:50:43;;;;;;;1.20;1.10;;;;;;;;;;5111900;28;20206;-74
2022/04/11 04:53:11;;;;;;;2.00;1.30;;;;;;;;;;5116855;28;20207;-74
2022/04/11 04:55:39;;;;;;;28.30;16.73;;;;;;;;;;5109687;28;20723;-74
2022/04/11 04:58:07;;;;;;;1.07;1.03;;;;;;;;;;5113687;28;20204;-74
2022/04/11 05:00:35;;;;;;;2.23;1.27;;;;;;;;;;5107298;28;20220;-74
2022/04/11 05:03:03;;;;;;;3.67;1.90;;;;;;;;;;5109973;28;20645;-74
2022/04/11 05:05:31;;;;;;;2.73;1.30;;;;;;;;;;5106306;28;20246;-74
2022/04/11 05:08:00;;;;;;;3.60;1.40;;;;;;;;;;5113067;28;20196;-74
2022/04/11 05:10:28;;;;;;;0.93;0.87;;;;;;;;;;5120827;28;20200;-75
2022/04/11 05:12:56;;;;;;;2.63;1.57;;;;;;;;;;5120554;28;20200;-75
2022/04/11 05:15:25;;;;;;;2.73;1.33;;;;;;;;;;5121016;28;20227;-76
2022/04/11 05:17:53;;;;;;;3.40;1.33;;;;;;;;;;5120199;28;20220;-75
2022/04/11 05:20:21;;;;;;;5.83;1.80;;;;;;;;;;5120930;28;20288;-75
2022/04/11 05:22:48;;;;;;;3.10;1.47;;;;;;;;;;5119534;28;20197;-75
2022/04/11 05:25:18;;;;;;;2.03;1.17;;;;;;;;;;5117698;28;20197;-74
2022/04/11 05:27:46;;;;;;;2.50;1.30;;;;;;;;;;5120633;28;20273;-74
2022/04/11 05:30:14;;;;;;;2.60;1.63;;;;;;;;;;5120949;28;20200;-74
2022/04/11 05:32:42;;;;;;;2.53;1.80;;;;;;;;;;5119931;27;20243;-74
2022/04/11 05:35:10;;;;;;;3.53;1.50;;;;;;;;;;5119368;28;20209;-74
2022/04/11 05:37:38;;;;;;;2.07;1.63;;;;;;;;;;5119990;28;20576;-74
2022/04/11 05:40:09;;;;;;;3.13;1.37;;;;;;;;;;5114066;28;20288;-65
2022/04/11 05:42:38;;;;;;;2.13;1.73;;;;;;;;;;5119927;28;20199;-77
2022/04/11 05:45:06;;;;;;;2.30;1.50;;;;;;;;;;5117976;28;20214;-75
2022/04/11 05:47:35;;;;;;;4.53;1.60;;;;;;;;;;5114666;27;20201;-74
2022/04/11 05:50:03;;;;;;;2.30;1.50;;;;;;;;;;5123470;27;20206;-75
2022/04/11 05:52:31;;;;;;;2.57;1.07;;;;;;;;;;5119418;28;20686;-77
2022/04/11 05:55:00;;;;;;;1.20;1.07;;;;;;;;;;5121430;27;20201;-77
2022/04/11 05:57:28;;;;;;;2.60;1.30;;;;;;;;;;5119434;28;20312;-76
2022/04/11 05:59:57;;;;;;;2.93;1.33;;;;;;;;;;5119935;27;21600;-77
2022/04/11 06:02:25;;;;;;;3.13;1.37;;;;;;;;;;5116683;27;20229;-78
2022/04/11 06:04:53;;;;;;;1.90;1.20;;;;;;;;;;5121539;27;20205;-77
2022/04/11 06:07:23;;;;;;;2.70;1.37;;;;;;;;;;5119422;27;20216;-77
2022/04/11 06:09:51;;;;;;;4.33;1.20;;;;;;;;;;5117865;27;20585;-77
2022/04/11 06:12:20;;;;;;;3.00;1.37;;;;;;;;;;5123603;27;20196;-78
2022/04/11 06:14:48;;;;;;;1.80;1.43;;;;;;;;;;5118772;27;20608;-79
2022/04/11 06:17:18;;;;;;;2.40;1.30;;;;;;;;;;5119769;28;20220;-78
2022/04/11 06:19:46;;;;;;;4.93;1.30;;;;;;;;;;5117524;27;20201;-78
2022/04/11 06:22:13;;;;;;;4.60;1.20;;;;;;;;;;5124783;27;20200;-78
2022/04/11 06:24:43;;;;;;;2.30;1.20;;;;;;;;;;5118237;28;20566;-78
2022/04/11 06:27:11;;;;;;;4.73;1.40;;;;;;;;;;5128785;27;20299;-78
2022/04/11 06:29:39;;;;;;;2.80;1.57;;;;;;;;;;5119367;27;20201;-78
2022/04/11 06:32:07;;;;;;;2.53;1.20;;;;;;;;;;5116051;27;20204;-78
2022/04/11 06:34:38;;;;;;;3.60;1.30;;;;;;;;;;5119823;28;20280;-76
2022/04/11 06:37:06;;;;;;;1.13;1.13;;;;;;;;;;5120994;27;20691;-77
2022/04/11 06:39:35;;;;;;;2.60;1.40;;;;;;;;;;5128199;27;20284;-76
2022/04/11 06:42:03;;;;;;;3.70;1.30;;;;;;;;;;5117063;27;20206;-78
2022/04/11 06:44:32;;;;;;;1.87;1.50;;;;;;;;;;5123728;27;20260;-77
2022/04/11 06:47:01;;;;;;;6.50;1.20;;;;;;;;;;5119210;27;20221;-77
2022/04/11 06:49:29;;;;;;;3.90;1.63;;;;;;;;;;5127701;27;20224;-78
2022/04/11 06:51:59;;;;;;;1.50;1.10;;;;;;;;;;5123311;27;20207;-76
2022/04/11 06:54:27;;;;;;;6.90;1.77;;;;;;;;;;5118669;28;20221;-77
2022/04/11 06:56:55;;;;;;;2.60;1.50;;;;;;;;;;5121563;27;20235;-79
2022/04/11 06:59:23;;;;;;;3.07;1.70;;;;;;;;;;5118047;28;20296;-77
2022/04/11 07:01:52;;;;;;;2.77;1.50;;;;;;;;;;5117788;28;20252;-74
2022/04/11 07:04:20;;;;;;;4.47;1.67;;;;;;;;;;5116816;27;20205;-78
2022/04/11 07:06:48;;;;;;;2.20;1.10;;;;;;;;;;5117909;27;20804;-77
2022/04/11 07:09:17;;;;;;;3.27;1.30;;;;;;;;;;5118958;27;20227;-79
2022/04/11 07:11:45;;;;;;;2.93;1.87;;;;;;;;;;5123561;27;20204;-78
2022/04/11 07:14:13;;;;;;;1.97;1.63;;;;;;;;;;5118440;27;20284;-76
2022/04/11 07:16:41;;;;;;;3.00;1.60;;;;;;;;;;5115186;27;20222;-77
2022/04/11 07:19:09;;;;;;;1.83;1.47;;;;;;;;;;5112593;28;20231;-76
2022/04/11 07:21:37;;;;;;;1.30;1.20;;;;;;;;;;5116958;27;20204;-78
2022/04/11 07:24:05;;;;;;;1.13;1.13;;;;;;;;;;5112388;27;20289;-78
2022/04/11 07:26:35;;;;;;;1.90;1.10;;;;;;;;;;5118621;27;20223;-78
2022/04/11 07:29:03;;;;;;;4.77;1.20;;;;;;;;;;5124468;27;20261;-78
2022/04/11 07:31:31;;;;;;;4.47;1.50;;;;;;;;;;5116782;28;20201;-78
2022/04/11 07:33:59;;;;;;;1.43;1.30;;;;;;;;;;5122940;27;20201;-78
2022/04/11 07:36:28;;;;;;;2.40;1.47;;;;;;;;;;5123804;27;20220;-77
2022/04/11 07:38:56;;;;;;;11.30;1.30;;;;;;;;;;5122258;27;20254;-76
2022/04/11 07:41:24;;;;;;;4.83;2.27;;;;;;;;;;5118245;27;20307;-76
2022/04/11 07:43:54;;;;;;;2.37;1.03;;;;;;;;;;5116175;27;20200;-75
2022/04/11 07:46:22;;;;;;;4.00;1.37;;;;;;;;;;5117303;28;20337;-77
2022/04/11 07:48:50;;;;;;;3.20;1.10;;;;;;;;;;5115674;27;20562;-78
2022/04/11 07:51:18;;;;;;;1.63;1.53;;;;;;;;;;5115172;28;20590;-78
2022/04/11 07:53:46;;;;;;;1.23;1.13;;;;;;;;;;5118723;27;22014;-78
2022/04/11 07:56:14;;;;;;;3.10;1.30;;;;;;;;;;5118891;27;20256;-78
2022/04/11 07:58:42;;;;;;;1.53;1.43;;;;;;;;;;5116606;27;20265;-78
2022/04/11 08:01:16;;;;;;;5.67;1.40;;;;;;;;;;5115748;27;20221;-78
2022/04/11 08:03:45;;;;;;;1.33;1.10;;;;;;;;;;5117386;27;20204;-78
2022/04/11 08:06:13;;;;;;;3.33;1.50;;;;;;;;;;5118561;27;20217;-78
2022/04/11 08:08:44;;;;;;;5.27;2.13;;;;;;;;;;5118057;27;20205;-78
2022/04/11 08:11:12;;;;;;;1.90;1.23;;;;;;;;;;5117705;28;20700;-78
2022/04/11 08:13:48;;;;;;;4.50;1.03;;;;;;;;;;5118168;27;20201;-78
2022/04/11 08:16:17;;;;;;;2.17;1.27;;;;;;;;;;5121543;27;20224;-78
2022/04/11 08:18:45;;;;;;;2.20;1.40;;;;;;;;;;5114871;27;20220;-78
2022/04/11 08:21:13;;;;;;;1.23;1.00;;;;;;;;;;5120474;27;20192;-78
2022/04/11 08:23:41;;;;;;;3.97;1.13;;;;;;;;;;5126402;27;20209;-77
2022/04/11 08:26:09;;;;;;;4.10;1.43;;;;;;;;;;5114022;27;20216;-77
2022/04/11 08:28:37;;;;;;;6.37;1.57;;;;;;;;;;5116289;28;20193;-77
2022/04/11 08:31:05;;;;;;;4.80;1.23;;;;;;;;;;5119141;27;20201;-78
2022/04/11 08:33:34;;;;;;;3.00;1.40;;;;;;;;;;5117687;28;20256;-76
2022/04/11 08:36:03;;;;;;;7.30;2.03;;;;;;;;;;5125219;27;20217;-76
2022/04/11 08:38:30;;;;;;;8.23;1.20;;;;;;;;;;5117568;28;20223;-76
2022/04/11 08:41:02;;;;;;;2.07;1.10;;;;;;;;;;5125557;27;20201;-77
2022/04/11 08:43:31;;;;;;;8.57;1.40;;;;;;;;;;5117465;28;20557;-76
2022/04/11 08:46:02;;;;;;;1.87;1.10;;;;;;;;;;5118428;28;20222;-76
2022/04/11 08:48:30;;;;;;;3.70;0.97;;;;;;;;;;5117356;28;20197;-76
2022/04/11 08:51:00;;;;;;;4.07;1.10;;;;;;;;;;5118798;28;20681;-76
2022/04/11 08:53:28;;;;;;;6.53;1.20;;;;;;;;;;5120632;27;20201;-76
2022/04/11 08:55:56;;;;;;;2.10;0.90;;;;;;;;;;5121018;28;20227;-76
2022/04/11 08:58:24;;;;;;;1.07;0.90;;;;;;;;;;5116895;28;20250;-76
2022/04/11 09:00:52;;;;;;;3.63;1.13;;;;;;;;;;5119759;28;20233;-76
2022/04/11 09:03:20;;;;;;;4.10;1.27;;;;;;;;;;5118289;28;20244;-75
2022/04/11 09:06:03;;;;;;;1.27;0.80;;;;;;;;;;5121182;28;20220;-75
2022/04/11 09:08:43;;;;;;;4.37;1.20;;;;;;;;;;5116463;28;20256;-75
2022/04/11 09:11:11;;;;;;;3.73;1.70;;;;;;;;;;5121383;28;20214;-75
2022/04/11 09:13:56;;;;;;;6.43;1.20;;;;;;;;;;5123753;28;20280;-75
2022/04/11 09:16:24;;;;;;;3.37;1.40;;;;;;;;;;5113515;28;20231;-75
2022/04/11 09:18:53;;;;;;;2.97;0.93;;;;;;;;;;5114025;28;20223;-75
2022/04/11 09:21:22;;;;;;;8.50;1.50;;;;;;;;;;5116505;28;20781;-75
2022/04/11 09:24:12;;;;;;;3.50;1.30;;;;;;;;;;5113805;28;20203;-75
2022/04/11 09:26:40;;;;;;;4.83;1.57;;;;;;;;;;5116342;28;20216;-75
2022/04/11 09:29:08;;;;;;;3.13;1.43;;;;;;;;;;5114704;28;20215;-75
2022/04/11 09:31:36;;;;;;;3.03;1.33;;;;;;;;;;5115204;28;20292;-75
2022/04/11 09:34:14;;;;;;;3.80;1.10;;;;;;;;;;5116322;28;20197;-75
2022/04/11 09:36:49;;;;;;;9.07;1.90;;;;;;;;;;5115934;28;20673;-74
2022/04/11 09:39:36;;;;;;;4.27;1.17;;;;;;;;;;5112448;28;20615;-75
2022/04/11 09:42:05;;;;;;;1.50;1.20;;;;;;;;;;5115226;28;20208;-76
2022/04/11 09:44:34;;;;;;;3.27;1.00;;;;;;;;;;5112494;28;20203;-75
2022/04/11 09:47:15;;;;;;;2.67;1.20;;;;;;;;;;5114595;28;20217;-75
2022/04/11 09:49:44;;;;;;;5.20;1.30;;;;;;;;;;5115634;28;20193;-75
2022/04/11 09:52:12;;;;;;;7.30;1.10;;;;;;;;;;5115813;28;20294;-75
2022/04/11 09:54:43;;;;;;;5.67;1.50;;;;;;;;;;5115384;28;20211;-75
2022/04/11 09:57:11;;;;;;;3.80;1.13;;;;;;;;;;5116608;28;20223;-75
2022/04/11 09:59:40;;;;;;;5.60;1.30;;;;;;;;;;5120367;27;20252;-75
2022/04/11 10:02:28;;;;;;;2.77;1.57;;;;;;;;;;5113530;28;20228;-75
2022/04/11 10:04:58;;;;;;;1.80;1.20;;;;;;;;;;5120774;27;20201;-75
2022/04/11 10:07:26;;;;;;;3.90;1.23;;;;;;;;;;5119783;27;20279;-75
2022/04/11 10:09:56;;;;;;;6.50;1.60;;;;;;;;;;5119996;27;20277;-75
2022/04/11 10:12:24;;;;;;;1.57;1.00;;;;;;;;;;5119682;27;20205;-75
2022/04/11 10:14:53;;;;;;;3.37;1.10;;;;;;;;;;5119982;27;20201;-75
2022/04/11 10:17:22;;;;;;;3.23;1.50;;;;;;;;;;5116497;28;20229;-75
2022/04/11 10:19:50;;;;;;;1.87;1.50;;;;;;;;;;5119849;27;20224;-75
2022/04/11 10:22:22;;;;;;;2.73;1.40;;;;;;;;;;5127259;27;20205;-75
2022/04/11 10:24:58;;;;;;;4.90;1.40;;;;;;;;;;5125909;27;20207;-75
2022/04/11 10:27:28;;;;;;;5.90;1.30;;;;;;;;;;5120146;27;20205;-75
2022/04/11 10:29:56;;;;;;;1.53;1.27;;;;;;;;;;5124357;27;20196;-75
2022/04/11 10:32:25;;;;;;;3.93;1.03;;;;;;;;;;5125715;27;20201;-75
2022/04/11 10:34:55;;;;;;;4.00;1.50;;;;;;;;;;5119154;28;20207;-75
2022/04/11 10:37:24;;;;;;;3.23;1.17;;;;;;;;;;5120262;27;20312;-75
2022/04/11 10:39:53;;;;;;;4.23;0.93;;;;;;;;;;5122145;27;20228;-75
2022/04/11 10:42:22;;;;;;;2.70;1.40;;;;;;;;;;5119895;27;20223;-75
2022/04/11 10:44:53;;;;;;;3.53;1.70;;;;;;;;;;5121103;27;20283;-75
2022/04/11 10:47:23;;;;;;;4.07;1.27;;;;;;;;;;5115864;28;20225;-75
2022/04/11 10:50:09;;;;;;;1.43;1.30;;;;;;;;;;5119714;27;20201;-75
2022/04/11 10:52:37;;;;;;;4.17;1.40;;;;;;;;;;5113535;28;20205;-75
2022/04/11 10:55:06;;;;;;;1.73;1.20;;;;;;;;;;5119842;27;20284;-75
2022/04/11 10:57:35;;;;;;;3.53;1.63;;;;;;;;;;5118979;27;20276;-78
2022/04/11 11:00:07;;;;;;;5.50;1.47;;;;;;;;;;5117652;28;20224;-75
2022/04/11 11:02:54;;;;;;;4.50;1.27;;;;;;;;;;5118592;27;20359;-76
2022/04/11 11:05:23;;;;;;;8.30;1.27;;;;;;;;;;5118554;27;20231;-75
2022/04/11 11:08:14;;;;;;;5.30;1.10;;;;;;;;;;5119580;27;20197;-76
2022/04/11 11:10:43;;;;;;;1.70;1.17;;;;;;;;;;5116085;27;20197;-76
2022/04/11 11:13:27;;;;;;;3.23;1.23;;;;;;;;;;5112892;28;20201;-76
2022/04/11 11:15:57;;;;;;;3.97;1.50;;;;;;;;;;5117379;27;20224;-78
2022/04/11 11:18:25;;;;;;;4.97;0.90;;;;;;;;;;5116433;28;20205;-77
2022/04/11 11:20:54;;;;;;;4.57;1.50;;;;;;;;;;5119508;27;20231;-78
2022/04/11 11:23:31;;;;;;;5.83;1.00;;;;;;;;;;5117317;27;20201;-77
2022/04/11 11:26:07;;;;;;;2.97;0.97;;;;;;;;;;5117824;27;20220;-78
2022/04/11 11:28:36;;;;;;;3.97;1.20;;;;;;;;;;5119325;27;20193;-78
2022/04/11 11:31:05;;;;;;;3.00;1.50;;;;;;;;;;5116093;28;20200;-77
2022/04/11 11:33:33;;;;;;;1.57;1.20;;;;;;;;;;5116615;27;20620;-68
2022/04/11 11:36:02;;;;;;;2.30;1.20;;;;;;;;;;5118839;27;20248;-69
2022/04/11 11:38:31;;;;;;;3.17;1.57;;;;;;;;;;5118251;27;20638;-68
2022/04/11 11:41:00;;;;;;;4.93;1.20;;;;;;;;;;5118696;27;20227;-69
2022/04/11 11:43:29;;;;;;;3.70;1.10;;;;;;;;;;5116441;28;20197;-69
2022/04/11 11:45:58;;;;;;;3.30;0.93;;;;;;;;;;5118661;27;20224;-66
2022/04/11 11:48:28;;;;;;;0.70;0.70;;;;;;;;;;5122026;27;20197;-66
2022/04/11 11:50:57;;;;;;;1.47;1.27;;;;;;;;;;5118303;27;20196;-66
2022/04/11 11:53:26;;;;;;;2.67;1.33;;;;;;;;;;5119941;27;20228;-66
2022/04/11 11:55:57;;;;;;;1.57;1.00;;;;;;;;;;5117914;27;20715;-66
2022/04/11 11:58:35;;;;;;;3.03;1.27;;;;;;;;;;5120703;27;20204;-66
2022/04/11 12:01:04;;;;;;;2.40;1.33;;;;;;;;;;5115129;28;20229;-64
2022/04/11 12:06:25;;;;;;;2.77;1.17;;;;;;;;;;5119236;27;20759;-69
2022/04/11 12:08:56;;;;;;;2.13;0.90;;;;;;;;;;5121370;27;20197;-69
2022/04/11 12:11:24;;;;;;;3.53;1.40;;;;;;;;;;5121781;27;20200;-68
2022/04/11 12:13:59;;;;;;;3.07;1.13;;;;;;;;;;5117940;27;20279;-67
2022/04/11 12:16:29;;;;;;;6.10;1.53;;;;;;;;;;5113788;27;20225;-68
2022/04/11 12:18:59;;;;;;;4.00;1.10;;;;;;;;;;5117862;27;20204;-68
2022/04/11 12:21:31;;;;;;;1.13;1.00;;;;;;;;;;5110179;28;20216;-67
2022/04/11 12:23:59;;;;;;;7.47;1.30;;;;;;;;;;5117259;28;20279;-68
2022/04/11 12:26:28;;;;;;;3.67;1.60;;;;;;;;;;5120212;27;20666;-69
2022/04/11 12:28:56;;;;;;;3.40;1.33;;;;;;;;;;5118541;27;20205;-69
2022/04/11 12:31:24;;;;;;;2.77;1.50;;;;;;;;;;5115144;28;20201;-67
2022/04/11 12:33:53;;;;;;;6.13;1.03;;;;;;;;;;5117320;28;20228;-68
2022/04/11 12:36:23;;;;;;;2.87;1.33;;;;;;;;;;5116970;28;20229;-67
2022/04/11 12:38:52;;;;;;;3.40;0.90;;;;;;;;;;5117155;28;20193;-69
2022/04/11 12:41:30;;;;;;;7.13;1.23;;;;;;;;;;5117335;28;20308;-71
2022/04/11 12:44:07;;;;;;;3.43;1.10;;;;;;;;;;5116354;28;20236;-69
2022/04/11 12:46:36;;;;;;;5.80;1.30;;;;;;;;;;5116172;27;20216;-71
2022/04/11 12:49:05;;;;;;;3.87;1.30;;;;;;;;;;5116943;28;20208;-71
2022/04/11 12:51:35;;;;;;;2.53;0.83;;;;;;;;;;5118321;28;20197;-70
2022/04/11 12:54:04;;;;;;;1.97;0.90;;;;;;;;;;5117130;27;20207;-70
2022/04/11 12:56:39;;;;;;;2.40;1.37;;;;;;;;;;5117500;28;20217;-72
2022/04/11 12:59:08;;;;;;;2.13;1.20;;;;;;;;;;5116967;28;20555;-71
2022/04/11 13:01:55;;;;;;;6.70;1.20;;;;;;;;;;5123652;28;20232;-72
2022/04/11 13:04:23;;;;;;;3.57;1.17;;;;;;;;;;5120270;28;20201;-71
2022/04/11 13:06:53;;;;;;;5.37;1.50;;;;;;;;;;5119845;28;20256;-72
2022/04/11 13:09:22;;;;;;;8.33;1.93;;;;;;;;;;5117350;28;20252;-71
2022/04/11 13:11:50;;;;;;;3.23;1.50;;;;;;;;;;5117603;28;20260;-71
2022/04/11 13:14:31;;;;;;;4.13;1.47;;;;;;;;;;5114170;28;20222;-71
2022/04/11 13:19:45;;;;;;;1.83;1.00;;;;;;;;;;5116881;28;20505;-72
2022/04/11 13:22:14;;;;;;;1.33;1.23;;;;;;;;;;5115936;28;20216;-71
2022/04/11 13:24:42;;;;;;;4.00;0.97;;;;;;;;;;5115881;28;20717;-73
2022/04/11 13:27:10;;;;;;;4.57;1.10;;;;;;;;;;5117326;28;20231;-74
2022/04/11 13:29:38;;;;;;;5.17;1.20;;;;;;;;;;5119733;28;20716;-74
2022/04/11 13:32:07;;;;;;;2.63;1.23;;;;;;;;;;5122581;27;20695;-74
2022/04/11 13:34:35;;;;;;;2.10;1.10;;;;;;;;;;5120243;28;20196;-74
2022/04/11 13:37:03;;;;;;;1.47;0.90;;;;;;;;;;5126251;27;20220;-74
2022/04/11 13:39:52;;;;;;;3.73;1.17;;;;;;;;;;5120317;28;20204;-74
2022/04/11 13:42:20;;;;;;;3.23;1.40;;;;;;;;;;5120613;27;20221;-74
2022/04/11 13:44:48;;;;;;;2.73;1.33;;;;;;;;;;5119158;27;20668;-74
2022/04/11 13:47:17;;;;;;;7.47;0.93;;;;;;;;;;5116253;27;20260;-74
2022/04/11 13:49:45;;;;;;;3.70;1.43;;;;;;;;;;5113163;28;20201;-74
2022/04/11 13:52:17;;;;;;;3.20;1.20;;;;;;;;;;5120116;28;20200;-74
2022/04/11 13:54:46;;;;;;;2.47;1.10;;;;;;;;;;5119578;27;20228;-73
2022/04/11 13:57:15;;;;;;;1.93;1.13;;;;;;;;;;5116701;27;20221;-71
2022/04/11 14:00:04;;;;;;;3.53;1.57;;;;;;;;;;5118802;27;20201;-73
2022/04/11 14:02:32;;;;;;;1.47;1.07;;;;;;;;;;5117048;28;20235;-73
2022/04/11 14:05:01;;;;;;;2.93;1.10;;;;;;;;;;5119226;27;20205;-73
2022/04/11 14:07:29;;;;;;;1.60;1.13;;;;;;;;;;5125968;27;20321;-74
2022/04/11 14:09:57;;;;;;;0.80;0.80;;;;;;;;;;5119625;27;20284;-74
2022/04/11 14:12:26;;;;;;;1.73;1.10;;;;;;;;;;5117776;27;20197;-74
2022/04/11 14:14:54;;;;;;;1.73;1.17;;;;;;;;;;5113385;27;20197;-74
2022/04/11 14:17:22;;;;;;;1.57;0.87;;;;;;;;;;5114274;27;20231;-74
2022/04/11 14:19:50;;;;;;;5.20;1.33;;;;;;;;;;5110715;28;20197;-73
2022/04/11 14:22:18;;;;;;;7.33;1.40;;;;;;;;;;5113229;27;20225;-72
2022/04/11 14:24:46;;;;;;;2.80;1.10;;;;;;;;;;5113800;27;20201;-73
2022/04/11 14:27:16;;;;;;;3.17;1.33;;;;;;;;;;5115435;27;21434;-73
2022/04/11 14:29:45;;;;;;;1.77;1.40;;;;;;;;;;5109308;27;20205;-73
2022/04/11 14:32:13;;;;;;;3.23;1.30;;;;;;;;;;5111793;28;20246;-73
2022/04/11 14:34:41;;;;;;;2.30;1.07;;;;;;;;;;5115767;27;20279;-73
2022/04/11 14:37:09;;;;;;;1.87;1.10;;;;;;;;;;5112206;27;20225;-74
2022/04/11 14:39:39;;;;;;;2.13;1.63;;;;;;;;;;5112208;28;20201;-73
2022/04/11 14:42:07;;;;;;;5.17;1.10;;;;;;;;;;5118485;28;20250;-67
2022/04/11 14:44:35;;;;;;;2.40;1.10;;;;;;;;;;5120337;27;20202;-74
2022/04/11 14:47:05;;;;;;;1.60;0.80;;;;;;;;;;5124534;27;20217;-74
2022/04/11 14:49:34;;;;;;;7.43;1.63;;;;;;;;;;5115821;28;20204;-74
2022/04/11 14:52:22;;;;;;;1.77;1.27;;;;;;;;;;5116218;27;20220;-78
2022/04/11 14:54:56;;;;;;;3.00;0.93;;;;;;;;;;5120706;27;20200;-74
2022/04/11 14:57:26;;;;;;;1.90;1.03;;;;;;;;;;5123393;27;20232;-75
2022/04/11 14:59:54;;;;;;;4.67;1.30;;;;;;;;;;5120401;28;20193;-77
2022/04/11 15:02:24;;;;;;;1.50;1.00;;;;;;;;;;5121632;27;20249;-75